Zetten, Netherlands
Current Conditions -  °F | °C
As of 6:55 PM on Sunday 25 Jan 2015 (Local Time) from EHDL Reporting Station
Haze Haze  
Wind Chill: 32°   Ceiling: 400
Heat Index: 37°   Visibility: 1.6mi
Dew Point: 37°   Wind: 7mph
Humidity: 100%   Direction: 190°S
Pressure: 30.33"   Gusts: NA
Location:  51.93°N, 5.71°E
Report Text: EHDL 251755Z AUTO 19006KT 2600 BR SCT003 BKN004 BKN021 03/03 Q1027 YLO
Loading
Personal Weather Stations






























Interactive Weather Map New forecast layout! Learn more

10-Day Weather Forecast

Advertisements
Track Severe Weather on mobile